createdAt,value
2022-10-06T00:01:10.879Z,101199.53
2022-10-06T00:03:45.871Z,101201.28
2022-10-06T00:06:15.140Z,101206.63
2022-10-06T00:08:43.327Z,101209.13
2022-10-06T00:11:11.487Z,101200.25
2022-10-06T00:13:38.274Z,101202.88
2022-10-06T00:16:17.708Z,101210.81
2022-10-06T00:18:44.692Z,101210.09
2022-10-06T00:21:10.844Z,101209.94
2022-10-06T00:23:37.061Z,101202.94
2022-10-06T00:26:03.773Z,101203.25
2022-10-06T00:28:30.221Z,101206.13
2022-10-06T00:31:01.394Z,101202.41
2022-10-06T00:33:27.796Z,101200.69
2022-10-06T00:35:58.105Z,101204.09
2022-10-06T00:38:24.705Z,101204.81
2022-10-06T00:40:51.548Z,101202.50
2022-10-06T00:43:39.836Z,101202.94
2022-10-06T00:46:17.313Z,101205.50
2022-10-06T00:48:46.159Z,101211.09
2022-10-06T00:51:13.560Z,101205.50
2022-10-06T00:53:40.132Z,101204.50
2022-10-06T00:56:06.294Z,101211.19
2022-10-06T00:58:32.878Z,101201.72
2022-10-06T01:00:59.140Z,101205.28
2022-10-06T01:03:32.698Z,101209.56
2022-10-06T01:06:01.386Z,101210.13
2022-10-06T01:08:28.956Z,101209.66
2022-10-06T01:10:55.319Z,101214.78
2022-10-06T01:13:22.743Z,101208.19
2022-10-06T01:15:58.705Z,101219.63
2022-10-06T01:18:28.787Z,101221.06
2022-10-06T01:21:14.570Z,101225.47
2022-10-06T01:23:41.256Z,101223.00
2022-10-06T01:26:09.998Z,101221.97
2022-10-06T01:28:37.944Z,101228.28
2022-10-06T01:31:07.165Z,101225.25
2022-10-06T01:33:33.563Z,101224.63
2022-10-06T01:35:59.702Z,101226.50
2022-10-06T01:38:26.508Z,101223.78
2022-10-06T01:40:57.901Z,101226.50
2022-10-06T01:43:24.088Z,101230.94
2022-10-06T01:45:55.210Z,101226.66
2022-10-06T01:48:21.707Z,101227.50
2022-10-06T01:50:48.896Z,101225.47
2022-10-06T01:53:15.166Z,101227.19
2022-10-06T01:55:41.275Z,101237.22
2022-10-06T01:58:08.763Z,101243.53
2022-10-06T02:00:35.990Z,101233.34
2022-10-06T02:03:03.019Z,101236.91
2022-10-06T02:05:29.261Z,101234.03
2022-10-06T02:07:55.863Z,101234.56
2022-10-06T02:10:22.076Z,101241.56
2022-10-06T02:12:53.720Z,101244.59
2022-10-06T02:15:22.227Z,101246.88
2022-10-06T02:17:48.682Z,101248.41
2022-10-06T02:20:15.581Z,101249.94
2022-10-06T02:22:43.124Z,101260.81
2022-10-06T02:25:11.262Z,101251.13
2022-10-06T02:27:38.643Z,101265.41
2022-10-06T02:30:07.612Z,101260.31
2022-10-06T02:32:36.338Z,101264.03
2022-10-06T02:35:03.973Z,101272.72
2022-10-06T02:37:30.916Z,101276.00
2022-10-06T02:39:57.144Z,101279.09
2022-10-06T02:42:23.412Z,101280.88
2022-10-06T02:44:51.448Z,101285.69
2022-10-06T02:47:21.523Z,101286.94
2022-10-06T02:49:47.975Z,101282.50
2022-10-06T02:52:16.465Z,101286.63
2022-10-06T02:54:42.636Z,101293.63
2022-10-06T02:57:08.978Z,101294.78
2022-10-06T02:59:35.868Z,101295.81
2022-10-06T03:02:03.946Z,101303.66
2022-10-06T03:04:30.229Z,101301.94
2022-10-06T03:06:57.011Z,101297.38
2022-10-06T03:09:26.204Z,101303.19
2022-10-06T03:11:52.924Z,101305.13
2022-10-06T03:14:32.574Z,101302.47
2022-10-06T03:16:58.826Z,101309.16
2022-10-06T03:19:28.089Z,101306.66
2022-10-06T03:21:55.090Z,101317.75
2022-10-06T03:24:26.467Z,101319.69
2022-10-06T03:26:57.355Z,101330.28
2022-10-06T03:29:24.500Z,101327.22
2022-10-06T03:31:54.137Z,101326.63
2022-10-06T03:34:20.495Z,101333.31
2022-10-06T03:36:47.698Z,101327.38
2022-10-06T03:39:17.351Z,101331.28
2022-10-06T03:41:43.684Z,101339.66
2022-10-06T03:44:09.903Z,101330.00
2022-10-06T03:46:40.214Z,101340.41
2022-10-06T03:49:08.029Z,101337.88
2022-10-06T03:51:37.137Z,101343.06
2022-10-06T03:54:04.113Z,101337.59
2022-10-06T03:56:37.656Z,101337.47
2022-10-06T03:59:07.679Z,101341.75
2022-10-06T04:01:37.032Z,101343.13
2022-10-06T04:04:06.472Z,101345.38
2022-10-06T04:06:38.527Z,101347.44
2022-10-06T04:09:14.726Z,101344.53
2022-10-06T04:11:43.748Z,101361.97
2022-10-06T04:14:14.069Z,101360.78
2022-10-06T04:16:50.004Z,101365.91
2022-10-06T04:19:21.501Z,101367.94
2022-10-06T04:21:50.858Z,101367.09
2022-10-06T04:24:24.504Z,101373.06
2022-10-06T04:26:51.662Z,101370.88
2022-10-06T04:29:18.910Z,101376.00
2022-10-06T04:31:49.752Z,101377.38
2022-10-06T04:34:21.295Z,101377.38
2022-10-06T04:36:47.806Z,101376.53
2022-10-06T04:39:16.330Z,101377.03
2022-10-06T04:41:46.831Z,101383.69
2022-10-06T04:44:16.942Z,101386.06
2022-10-06T04:46:44.995Z,101387.94
2022-10-06T04:49:18.994Z,101386.56
2022-10-06T04:51:48.504Z,101386.38
2022-10-06T04:54:15.278Z,101393.50
2022-10-06T04:56:41.983Z,101399.63
2022-10-06T04:59:09.552Z,101400.63
2022-10-06T05:01:38.338Z,101398.25
2022-10-06T05:04:08.642Z,101406.91
2022-10-06T05:06:39.128Z,101413.88
2022-10-06T05:09:08.494Z,101419.50
2022-10-06T05:11:35.711Z,101414.53
2022-10-06T05:14:04.931Z,101418.81
2022-10-06T05:16:33.641Z,101417.75
2022-10-06T05:19:00.161Z,101422.34
2022-10-06T05:21:31.505Z,101430.69
2022-10-06T05:24:00.082Z,101432.56
2022-10-06T05:26:29.113Z,101429.28
2022-10-06T05:28:56.525Z,101440.03
2022-10-06T05:31:28.951Z,101445.88
2022-10-06T05:33:57.448Z,101452.88
2022-10-06T05:36:30.737Z,101454.28
2022-10-06T05:38:57.861Z,101448.88
2022-10-06T05:41:28.182Z,101454.84
2022-10-06T05:43:56.335Z,101454.91
2022-10-06T05:46:35.306Z,101462.94
2022-10-06T05:49:07.463Z,101468.78
2022-10-06T05:51:35.077Z,101475.34
2022-10-06T05:54:05.687Z,101481.59
2022-10-06T05:56:34.488Z,101485.22
2022-10-06T05:59:02.252Z,101491.91
2022-10-06T06:01:34.522Z,101489.16
2022-10-06T06:04:05.846Z,101497.19
2022-10-06T06:06:42.363Z,101503.69
2022-10-06T06:09:17.699Z,101497.38
2022-10-06T06:11:47.935Z,101504.53
2022-10-06T06:14:40.910Z,101508.13
2022-10-06T06:17:08.324Z,101516.19
2022-10-06T06:19:34.760Z,101523.19
2022-10-06T06:22:00.979Z,101526.94
2022-10-06T06:24:27.424Z,101522.88
2022-10-06T06:26:53.654Z,101532.44
2022-10-06T06:29:19.826Z,101530.91
2022-10-06T06:31:49.305Z,101538.63
2022-10-06T06:34:15.750Z,101546.16
2022-10-06T06:36:46.156Z,101539.34
2022-10-06T06:39:17.980Z,101551.84
2022-10-06T06:41:46.632Z,101550.66
2022-10-06T06:44:33.368Z,101560.41
2022-10-06T06:47:04.277Z,101562.94
2022-10-06T06:49:30.913Z,101565.84
2022-10-06T06:52:02.686Z,101572.50
2022-10-06T06:54:29.320Z,101567.56
2022-10-06T06:57:01.435Z,101574.06
2022-10-06T06:59:28.511Z,101583.47
2022-10-06T07:01:57.509Z,101587.59
2022-10-06T07:04:25.129Z,101601.97
2022-10-06T07:07:00.672Z,101601.28
2022-10-06T07:09:33.601Z,101610.00
2022-10-06T07:12:06.507Z,101614.97
2022-10-06T07:14:32.714Z,101612.06
2022-10-06T07:17:19.113Z,101616.84
2022-10-06T07:20:07.835Z,101630.03
2022-10-06T07:22:53.568Z,101628.66
2022-10-06T07:25:26.579Z,101645.25
2022-10-06T07:28:01.716Z,101652.97
2022-10-06T07:30:34.155Z,101657.41
2022-10-06T07:33:07.922Z,101654.16
2022-10-06T07:35:34.106Z,101655.72
2022-10-06T07:38:07.350Z,101663.09
2022-10-06T07:40:42.727Z,101663.94
2022-10-06T07:43:18.020Z,101671.13
2022-10-06T07:45:48.805Z,101675.75
2022-10-06T07:48:29.221Z,101673.03
2022-10-06T07:51:01.211Z,101667.03
2022-10-06T07:53:35.371Z,101688.25
2022-10-06T07:56:08.247Z,101685.19
2022-10-06T07:58:41.147Z,101682.94
2022-10-06T08:01:10.016Z,101682.25
2022-10-06T08:03:36.961Z,101689.78
2022-10-06T08:06:03.748Z,101688.78
2022-10-06T08:08:32.107Z,101707.75
2022-10-06T08:11:01.487Z,101713.25
2022-10-06T08:13:31.451Z,101721.97
2022-10-06T08:16:06.191Z,101718.03
2022-10-06T08:18:48.229Z,101725.91
2022-10-06T08:21:18.472Z,101725.06
2022-10-06T08:23:46.552Z,101736.53
2022-10-06T08:26:14.210Z,101742.84
2022-10-06T08:28:44.700Z,101755.03
2022-10-06T08:31:10.965Z,101768.72
2022-10-06T08:33:42.123Z,101767.66
2022-10-06T08:36:11.517Z,101762.81
2022-10-06T08:38:38.165Z,101763.16
2022-10-06T08:41:24.282Z,101771.72
2022-10-06T08:44:19.396Z,101775.66
2022-10-06T08:47:07.117Z,101774.44
2022-10-06T08:49:43.866Z,101775.44
2022-10-06T08:52:35.051Z,101787.03
2022-10-06T08:55:26.413Z,101784.56
2022-10-06T09:00:37.696Z,101785.06
2022-10-06T09:03:07.131Z,101801.72
2022-10-06T09:05:34.265Z,101796.69
2022-10-06T09:08:43.534Z,101799.09
2022-10-06T09:11:27.055Z,101810.91
2022-10-06T09:14:00.809Z,101814.69
2022-10-06T09:16:31.892Z,101811.38
2022-10-06T09:19:24.794Z,101808.94
2022-10-06T09:21:53.237Z,101819.03
2022-10-06T09:24:46.380Z,101820.31
2022-10-06T09:27:20.496Z,101821.66
2022-10-06T09:29:50.050Z,101832.63
2022-10-06T09:32:19.012Z,101830.69
2022-10-06T09:34:51.223Z,101835.75
2022-10-06T09:37:18.840Z,101837.88
2022-10-06T09:39:52.460Z,101836.63
2022-10-06T09:42:21.423Z,101839.59
2022-10-06T09:44:50.670Z,101848.28
2022-10-06T09:47:46.709Z,101851.97
2022-10-06T09:50:21.841Z,101856.88
2022-10-06T09:52:57.318Z,101863.28
2022-10-06T09:55:29.066Z,101865.00
2022-10-06T09:57:56.939Z,101873.00
2022-10-06T10:00:35.202Z,101878.78
2022-10-06T10:03:07.429Z,101868.06
2022-10-06T10:05:38.961Z,101887.69
2022-10-06T10:08:26.779Z,101882.22
2022-10-06T10:11:41.420Z,101884.97
2022-10-06T10:14:19.622Z,101893.03
2022-10-06T10:16:50.913Z,101894.66
2022-10-06T10:19:33.183Z,101892.84
2022-10-06T10:21:59.547Z,101894.25
2022-10-06T10:24:48.898Z,101901.09
2022-10-06T10:27:32.603Z,101896.19
2022-10-06T10:30:10.103Z,101904.34
2022-10-06T10:32:48.690Z,101911.34
2022-10-06T10:35:22.391Z,101913.78
2022-10-06T10:37:59.847Z,101921.69
2022-10-06T10:40:32.141Z,101919.13
2022-10-06T10:43:34.663Z,101921.25
2022-10-06T10:46:03.601Z,101930.94
2022-10-06T10:48:38.713Z,101928.09
2022-10-06T10:51:19.204Z,101933.69
2022-10-06T10:54:04.347Z,101924.66
2022-10-06T10:56:32.268Z,101934.25
2022-10-06T10:59:06.446Z,101935.91
2022-10-06T11:01:40.970Z,101939.88
2022-10-06T11:04:12.038Z,101948.81
2022-10-06T11:07:06.356Z,101951.44
2022-10-06T11:09:45.359Z,101952.31
2022-10-06T11:12:36.414Z,101952.69
2022-10-06T11:15:44.182Z,101956.59
2022-10-06T11:18:25.404Z,101963.56
2022-10-06T11:20:54.902Z,101956.81
2022-10-06T11:23:50.220Z,101965.44
2022-10-06T11:26:19.307Z,101965.00
2022-10-06T11:29:06.900Z,101972.22
2022-10-06T11:32:03.807Z,101968.28
2022-10-06T11:34:30.115Z,101972.72
2022-10-06T11:37:11.593Z,101982.59
2022-10-06T11:39:49.572Z,101985.72
2022-10-06T11:45:28.304Z,101995.56
2022-10-06T11:48:06.949Z,101995.34
2022-10-06T11:50:35.787Z,102001.81
2022-10-06T11:53:04.088Z,102000.72
2022-10-06T11:55:31.096Z,102001.34
2022-10-06T12:01:01.663Z,102000.59
2022-10-06T12:03:27.881Z,102015.16
2022-10-06T12:05:56.841Z,102013.06
2022-10-06T12:08:38.782Z,102015.16
2022-10-06T12:11:40.572Z,102024.44
2022-10-06T12:16:32.525Z,102017.38
2022-10-06T12:17:39.725Z,102022.44
2022-10-06T12:20:47.084Z,102023.41
2022-10-06T12:23:42.729Z,102020.53
2022-10-06T12:26:16.611Z,102020.53
2022-10-06T12:28:48.463Z,102019.72
2022-10-06T12:31:33.304Z,102023.34
2022-10-06T12:33:59.540Z,102020.03
2022-10-06T12:36:29.326Z,102031.13
2022-10-06T12:39:02.295Z,102026.53
2022-10-06T12:42:00.980Z,102034.75
2022-10-06T12:44:39.664Z,102039.16
2022-10-06T12:47:22.097Z,102035.78
2022-10-06T12:49:53.050Z,102043.34
2022-10-06T12:52:38.770Z,102039.56
2022-10-06T12:55:31.638Z,102041.53
2022-10-06T12:57:58.011Z,102045.25
2022-10-06T13:00:38.885Z,102044.03
2022-10-06T13:03:08.335Z,102054.31
2022-10-06T13:05:35.941Z,102040.59
2022-10-06T13:08:05.474Z,102050.84
2022-10-06T13:10:32.692Z,102056.16
2022-10-06T13:12:59.724Z,102046.84
2022-10-06T13:15:34.461Z,102051.25
2022-10-06T13:18:22.375Z,102060.84
2022-10-06T13:20:50.930Z,102061.78
2022-10-06T13:23:34.515Z,102061.28
2022-10-06T13:26:03.847Z,102066.44
2022-10-06T13:28:43.090Z,102072.84
2022-10-06T13:31:30.666Z,102076.47
2022-10-06T13:34:03.240Z,102071.69
2022-10-06T13:36:33.043Z,102073.28
2022-10-06T13:39:02.506Z,102074.19
2022-10-06T13:41:36.354Z,102083.50
2022-10-06T13:44:16.708Z,102086.66
2022-10-06T13:46:48.325Z,102087.66
2022-10-06T13:49:22.801Z,102088.38
2022-10-06T13:51:54.672Z,102092.88
2022-10-06T13:54:30.276Z,102089.16
2022-10-06T13:56:57.973Z,102086.75
2022-10-06T13:59:37.768Z,102092.25
2022-10-06T14:02:19.386Z,102094.66
2022-10-06T14:05:23.318Z,102099.50
2022-10-06T14:07:50.555Z,102101.78
2022-10-06T14:10:43.752Z,102101.34
2022-10-06T14:13:26.458Z,102099.44
2022-10-06T14:15:59.942Z,102109.88
2022-10-06T14:18:40.381Z,102102.38
2022-10-06T14:21:29.335Z,102111.94
2022-10-06T14:23:56.327Z,102116.97
2022-10-06T14:26:25.702Z,102104.63
2022-10-06T14:28:53.414Z,102109.28
2022-10-06T14:31:21.112Z,102110.31
2022-10-06T14:33:51.989Z,102118.88
2022-10-06T14:36:27.958Z,102115.13
2022-10-06T14:38:56.137Z,102117.53
2022-10-06T14:41:27.746Z,102122.69
2022-10-06T14:43:55.371Z,102120.81
2022-10-06T14:46:24.534Z,102129.06
2022-10-06T14:48:51.842Z,102122.34
2022-10-06T14:51:18.943Z,102115.84
2022-10-06T14:53:54.691Z,102122.34
2022-10-06T14:56:22.917Z,102124.94
2022-10-06T14:58:50.760Z,102132.81
2022-10-06T15:01:20.325Z,102131.28
2022-10-06T15:03:56.031Z,102133.84
2022-10-06T15:06:41.343Z,102133.00
2022-10-06T15:09:08.387Z,102136.75
2022-10-06T15:11:35.266Z,102142.78
2022-10-06T15:14:02.280Z,102133.81
2022-10-06T15:16:31.394Z,102145.34
2022-10-06T15:18:59.079Z,102139.16
2022-10-06T15:21:26.450Z,102147.91
2022-10-06T15:23:58.255Z,102142.88
2022-10-06T15:26:43.890Z,102150.44
2022-10-06T15:29:11.066Z,102149.34
2022-10-06T15:31:39.634Z,102156.38
2022-10-06T15:34:08.431Z,102154.47
2022-10-06T15:36:36.697Z,102154.94
2022-10-06T15:39:12.170Z,102164.38
2022-10-06T15:41:40.760Z,102160.91
2022-10-06T15:44:07.760Z,102163.09
2022-10-06T15:46:39.848Z,102165.31
2022-10-06T15:49:08.720Z,102173.19
2022-10-06T15:51:37.545Z,102165.41
2022-10-06T15:54:04.830Z,102175.28
2022-10-06T15:56:31.495Z,102179.63
2022-10-06T15:58:58.903Z,102179.91
2022-10-06T16:01:31.594Z,102176.56
2022-10-06T16:04:07.645Z,102184.72
2022-10-06T16:06:41.111Z,102190.97
2022-10-06T16:09:11.573Z,102188.31
2022-10-06T16:11:38.474Z,102185.81
2022-10-06T16:14:05.407Z,102189.66
2022-10-06T16:16:32.324Z,102191.44
2022-10-06T16:19:01.495Z,102193.38
2022-10-06T16:21:32.022Z,102205.72
2022-10-06T16:23:59.082Z,102204.00
2022-10-06T16:26:27.425Z,102210.69
2022-10-06T16:28:53.817Z,102212.47
2022-10-06T16:31:22.675Z,102214.69
2022-10-06T16:33:49.179Z,102218.91
2022-10-06T16:36:16.861Z,102217.50
2022-10-06T16:38:43.411Z,102221.69
2022-10-06T16:41:10.095Z,102228.63
2022-10-06T16:43:38.589Z,102229.34
2022-10-06T16:46:17.401Z,102236.72
2022-10-06T16:48:46.493Z,102247.66
2022-10-06T16:51:16.890Z,102243.78
2022-10-06T16:53:44.497Z,102258.03
2022-10-06T16:56:15.139Z,102257.59
2022-10-06T16:58:44.278Z,102258.16
2022-10-06T17:01:13.865Z,102268.38
2022-10-06T17:03:42.299Z,102257.59
2022-10-06T17:06:14.588Z,102268.50
2022-10-06T17:08:41.817Z,102265.91
2022-10-06T17:11:17.504Z,102263.13
2022-10-06T17:13:45.610Z,102269.88
2022-10-06T17:16:16.689Z,102270.88
2022-10-06T17:18:47.481Z,102266.97
2022-10-06T17:21:39.717Z,102271.53
2022-10-06T17:24:03.311Z,102283.31
2022-10-06T17:26:34.901Z,102274.13
2022-10-06T17:29:05.168Z,102271.66
2022-10-06T17:31:36.679Z,102273.47
2022-10-06T17:34:26.447Z,102271.38
2022-10-06T17:36:54.234Z,102270.19
2022-10-06T17:39:22.056Z,102269.00
2022-10-06T17:41:51.740Z,102276.31
2022-10-06T17:44:21.841Z,102278.44
2022-10-06T17:46:50.696Z,102273.75
2022-10-06T17:49:21.526Z,102276.88
2022-10-06T17:51:50.047Z,102273.19
2022-10-06T17:54:19.432Z,102276.97
2022-10-06T17:56:47.680Z,102280.66
2022-10-06T17:59:17.440Z,102281.34
2022-10-06T18:01:44.790Z,102267.66
2022-10-06T18:04:15.424Z,102276.91
2022-10-06T18:06:43.358Z,102286.06
2022-10-06T18:09:10.303Z,102290.16
2022-10-06T18:11:42.639Z,102289.81
2022-10-06T18:14:17.796Z,102293.03
2022-10-06T18:16:48.922Z,102289.59
2022-10-06T18:19:24.807Z,102281.94
2022-10-06T18:21:53.531Z,102284.69
2022-10-06T18:24:22.492Z,102278.63
2022-10-06T18:26:50.711Z,102290.63
2022-10-06T18:29:19.986Z,102287.53
2022-10-06T18:31:52.027Z,102293.47
2022-10-06T18:37:05.460Z,102293.47
2022-10-06T18:39:32.849Z,102299.75
2022-10-06T18:42:02.447Z,102302.72
2022-10-06T18:44:47.793Z,102307.19
2022-10-06T18:47:32.642Z,102300.13
2022-10-06T18:49:59.432Z,102305.59
2022-10-06T18:52:26.385Z,102308.44
2022-10-06T18:54:52.736Z,102305.72
2022-10-06T18:57:21.587Z,102303.97
2022-10-06T18:59:50.261Z,102313.47
2022-10-06T19:02:18.203Z,102315.09
2022-10-06T19:04:44.488Z,102322.63
2022-10-06T19:07:10.703Z,102317.19
2022-10-06T19:09:37.394Z,102325.94
2022-10-06T19:12:04.246Z,102324.69
2022-10-06T19:14:35.160Z,102324.28
2022-10-06T19:17:06.071Z,102326.75
2022-10-06T19:19:33.340Z,102332.28
2022-10-06T19:22:02.862Z,102329.38
2022-10-06T19:24:34.308Z,102330.88
2022-10-06T19:27:03.004Z,102331.97
2022-10-06T19:29:35.953Z,102338.47
2022-10-06T19:32:04.644Z,102335.13
2022-10-06T19:34:34.254Z,102345.19
2022-10-06T19:37:00.797Z,102341.59
2022-10-06T19:39:34.694Z,102343.78
2022-10-06T19:42:19.657Z,102342.16
2022-10-06T19:44:46.931Z,102338.94
2022-10-06T19:47:14.602Z,102339.81
2022-10-06T19:49:42.207Z,102337.31
2022-10-06T19:52:11.699Z,102348.56
2022-10-06T19:54:41.365Z,102340.00
2022-10-06T19:57:10.709Z,102345.66
2022-10-06T19:59:37.438Z,102337.00
2022-10-06T20:02:06.961Z,102343.66
2022-10-06T20:04:34.055Z,102346.94
2022-10-06T20:07:01.391Z,102350.50
2022-10-06T20:09:32.080Z,102356.81
2022-10-06T20:12:02.083Z,102352.69
2022-10-06T20:14:28.813Z,102353.91
2022-10-06T20:16:56.896Z,102351.31
2022-10-06T20:19:24.711Z,102353.03
2022-10-06T20:21:52.375Z,102358.34
2022-10-06T20:24:24.990Z,102349.03
2022-10-06T20:26:53.409Z,102350.66
2022-10-06T20:29:23.435Z,102356.72
2022-10-06T20:31:55.476Z,102360.66
2022-10-06T20:34:25.773Z,102363.47
2022-10-06T20:36:56.043Z,102357.06
2022-10-06T20:39:44.530Z,102357.75
2022-10-06T20:42:14.852Z,102363.63
2022-10-06T20:44:42.663Z,102358.75
2022-10-06T20:47:09.807Z,102370.91
2022-10-06T20:49:36.647Z,102364.72
2022-10-06T20:52:04.128Z,102368.00
2022-10-06T20:54:34.002Z,102367.78
2022-10-06T20:57:03.694Z,102376.44
2022-10-06T20:59:31.160Z,102367.03
2022-10-06T21:02:00.472Z,102375.47
2022-10-06T21:04:27.495Z,102378.88
2022-10-06T21:06:54.415Z,102380.72
2022-10-06T21:09:20.931Z,102378.00
2022-10-06T21:11:50.759Z,102379.19
2022-10-06T21:14:17.549Z,102366.19
2022-10-06T21:16:46.819Z,102370.38
2022-10-06T21:19:16.391Z,102370.38
2022-10-06T21:21:51.382Z,102375.16
2022-10-06T21:24:18.739Z,102384.50
2022-10-06T21:26:45.052Z,102373.03
2022-10-06T21:29:15.114Z,102370.91
2022-10-06T21:31:44.019Z,102372.66
2022-10-06T21:34:10.444Z,102362.56
2022-10-06T21:36:37.197Z,102368.94
2022-10-06T21:39:05.069Z,102369.94
2022-10-06T21:41:38.115Z,102370.69
2022-10-06T21:44:13.186Z,102360.59
2022-10-06T21:46:47.160Z,102369.91
2022-10-06T21:49:16.117Z,102364.59
2022-10-06T21:51:45.003Z,102367.19
2022-10-06T21:54:11.658Z,102371.09
2022-10-06T21:56:38.578Z,102373.03
2022-10-06T21:59:05.444Z,102372.94
2022-10-06T22:01:34.902Z,102377.47
2022-10-06T22:04:01.482Z,102380.28
2022-10-06T22:06:29.172Z,102380.69
2022-10-06T22:08:57.041Z,102378.00
2022-10-06T22:11:29.994Z,102366.31
2022-10-06T22:13:58.925Z,102371.50
2022-10-06T22:16:27.516Z,102364.03
2022-10-06T22:18:54.504Z,102368.38
2022-10-06T22:21:23.862Z,102370.00
2022-10-06T22:24:01.485Z,102363.28
2022-10-06T22:26:30.384Z,102372.56
2022-10-06T22:28:57.886Z,102371.50
2022-10-06T22:31:26.411Z,102366.19
2022-10-06T22:33:58.369Z,102361.94
2022-10-06T22:36:26.186Z,102366.78
2022-10-06T22:38:52.902Z,102363.22
2022-10-06T22:41:19.463Z,102368.06
2022-10-06T22:43:45.689Z,102366.88
2022-10-06T22:46:12.944Z,102373.88
2022-10-06T22:48:39.935Z,102367.38
2022-10-06T22:51:06.693Z,102376.09
2022-10-06T22:53:33.519Z,102371.28
2022-10-06T22:56:01.466Z,102379.59
2022-10-06T22:58:27.980Z,102374.09
2022-10-06T23:00:54.589Z,102375.94
2022-10-06T23:03:21.891Z,102367.06
2022-10-06T23:05:56.269Z,102367.25
2022-10-06T23:08:23.521Z,102370.06
2022-10-06T23:10:49.954Z,102365.13
2022-10-06T23:13:17.033Z,102374.41
2022-10-06T23:15:43.381Z,102365.50
2022-10-06T23:18:09.636Z,102367.81
2022-10-06T23:20:36.014Z,102369.38
2022-10-06T23:23:02.424Z,102369.78
2022-10-06T23:25:28.624Z,102368.44
2022-10-06T23:27:55.040Z,102364.31
2022-10-06T23:30:21.436Z,102368.44
2022-10-06T23:32:47.598Z,102365.44
2022-10-06T23:35:13.997Z,102369.00
2022-10-06T23:37:40.401Z,102365.53
2022-10-06T23:40:07.277Z,102368.03
2022-10-06T23:42:33.393Z,102369.97
2022-10-06T23:44:59.732Z,102363.91
2022-10-06T23:47:25.932Z,102366.31
2022-10-06T23:49:53.553Z,102368.44
2022-10-06T23:52:19.850Z,102371.34
2022-10-06T23:54:45.997Z,102378.59
2022-10-06T23:57:12.144Z,102372.50
2022-10-06T23:59:38.507Z,102380.81
